createdAt,value
2023-05-31T00:01:46.845Z,15.00
2023-05-31T00:04:16.384Z,15.00
2023-05-31T00:06:45.968Z,15.00
2023-05-31T00:09:14.063Z,15.00
2023-05-31T00:11:42.159Z,15.00
2023-05-31T00:14:10.202Z,15.00
2023-05-31T00:19:11.682Z,14.90
2023-05-31T00:21:41.352Z,14.90
2023-05-31T00:24:09.661Z,14.90
2023-05-31T00:26:40.145Z,14.90
2023-05-31T00:29:08.159Z,14.90
2023-05-31T00:31:36.245Z,14.90
2023-05-31T00:34:04.264Z,14.90
2023-05-31T00:36:32.741Z,14.80
2023-05-31T00:39:02.187Z,14.80
2023-05-31T00:41:30.254Z,14.80
2023-05-31T00:44:01.088Z,14.80
2023-05-31T00:46:33.512Z,14.80
2023-05-31T00:49:02.895Z,14.80
2023-05-31T00:51:33.556Z,14.70
2023-05-31T00:54:03.921Z,14.70
2023-05-31T00:56:32.094Z,14.70
2023-05-31T00:59:01.428Z,14.70
2023-05-31T01:01:34.529Z,14.70
2023-05-31T01:04:04.025Z,14.60
2023-05-31T01:06:33.611Z,14.60
2023-05-31T01:09:06.804Z,14.60
2023-05-31T01:11:52.486Z,14.50
2023-05-31T01:14:31.360Z,14.50
2023-05-31T01:17:11.795Z,14.50
2023-05-31T01:19:48.125Z,14.40
2023-05-31T01:22:28.932Z,14.40
2023-05-31T01:25:16.441Z,14.40
2023-05-31T01:27:47.578Z,14.30
2023-05-31T01:30:18.405Z,14.30
2023-05-31T01:32:47.718Z,14.30
2023-05-31T01:35:16.289Z,14.30
2023-05-31T01:37:44.321Z,14.20
2023-05-31T01:40:14.575Z,14.20
2023-05-31T01:42:47.784Z,14.10
2023-05-31T01:45:17.584Z,14.10
2023-05-31T01:47:47.112Z,14.10
2023-05-31T01:50:15.940Z,14.00
2023-05-31T01:52:44.367Z,14.00
2023-05-31T01:55:12.446Z,13.90
2023-05-31T01:57:44.335Z,13.90
2023-05-31T02:00:15.961Z,13.90
2023-05-31T02:02:45.111Z,13.80
2023-05-31T02:05:14.650Z,13.80
2023-05-31T02:07:44.707Z,13.80
2023-05-31T02:10:13.888Z,13.80
2023-05-31T02:12:42.194Z,13.80
2023-05-31T02:15:12.056Z,13.70
2023-05-31T02:17:44.074Z,13.70
2023-05-31T02:20:14.436Z,13.60
2023-05-31T02:22:43.197Z,13.60
2023-05-31T02:25:12.095Z,13.60
2023-05-31T02:27:40.973Z,13.60
2023-05-31T02:30:11.087Z,13.60
2023-05-31T02:32:39.659Z,13.50
2023-05-31T02:35:10.761Z,13.50
2023-05-31T02:37:40.288Z,13.50
2023-05-31T02:40:09.899Z,13.50
2023-05-31T02:42:40.090Z,13.40
2023-05-31T02:45:09.062Z,13.40
2023-05-31T02:47:38.697Z,13.40
2023-05-31T02:50:10.440Z,13.40
2023-05-31T02:52:39.063Z,13.40
2023-05-31T02:55:07.656Z,13.40
2023-05-31T02:57:35.946Z,13.30
2023-05-31T03:00:12.207Z,13.30
2023-05-31T03:02:40.426Z,13.30
2023-05-31T03:05:11.086Z,13.20
2023-05-31T03:07:39.324Z,13.20
2023-05-31T03:10:09.717Z,13.20
2023-05-31T03:12:37.874Z,13.20
2023-05-31T03:15:09.515Z,13.10
2023-05-31T03:17:40.999Z,13.10
2023-05-31T03:20:11.692Z,13.10
2023-05-31T03:22:40.374Z,13.10
2023-05-31T03:25:08.930Z,13.10
2023-05-31T03:27:37.039Z,13.10
2023-05-31T03:30:06.718Z,13.10
2023-05-31T03:32:36.260Z,13.10
2023-05-31T03:35:06.430Z,13.10
2023-05-31T03:37:36.325Z,13.00
2023-05-31T03:40:05.538Z,13.00
2023-05-31T03:42:33.971Z,13.00
2023-05-31T03:45:02.139Z,13.00
2023-05-31T03:47:30.375Z,13.00
2023-05-31T03:49:58.525Z,13.10
2023-05-31T03:52:26.753Z,13.10
2023-05-31T03:54:56.228Z,13.10
2023-05-31T03:57:24.310Z,13.10
2023-05-31T03:59:52.780Z,13.20
2023-05-31T04:02:20.920Z,13.20
2023-05-31T04:04:49.189Z,13.20
2023-05-31T04:07:17.315Z,13.20
2023-05-31T04:09:45.410Z,13.30
2023-05-31T04:12:14.893Z,13.30
2023-05-31T04:14:42.977Z,13.40
2023-05-31T04:17:10.991Z,13.30
2023-05-31T04:19:39.202Z,13.40
2023-05-31T04:22:07.681Z,13.40
2023-05-31T04:24:35.772Z,13.40
2023-05-31T04:27:04.440Z,13.50
2023-05-31T04:29:33.855Z,13.50
2023-05-31T04:32:02.132Z,13.60
2023-05-31T04:34:31.847Z,13.70
2023-05-31T04:36:59.831Z,13.70
2023-05-31T04:39:28.544Z,13.80
2023-05-31T04:42:00.291Z,13.90
2023-05-31T04:44:28.577Z,13.90
2023-05-31T04:47:01.063Z,13.90
2023-05-31T04:49:33.237Z,14.00
2023-05-31T04:52:06.240Z,14.10
2023-05-31T04:54:34.237Z,14.20
2023-05-31T04:57:02.577Z,14.30
2023-05-31T04:59:30.637Z,14.40
2023-05-31T05:02:00.128Z,14.50
2023-05-31T05:04:29.549Z,14.60
2023-05-31T05:07:00.170Z,14.80
2023-05-31T05:09:28.227Z,14.90
2023-05-31T05:11:57.503Z,15.10
2023-05-31T05:14:25.660Z,15.30
2023-05-31T05:16:53.777Z,15.50
2023-05-31T05:19:23.233Z,15.70
2023-05-31T05:21:51.359Z,15.90
2023-05-31T05:24:19.475Z,16.10
2023-05-31T05:26:47.569Z,16.30
2023-05-31T05:29:15.835Z,16.50
2023-05-31T05:31:43.982Z,16.80
2023-05-31T05:34:12.072Z,17.10
2023-05-31T05:36:41.856Z,17.30
2023-05-31T05:39:10.000Z,17.50
2023-05-31T05:41:38.018Z,17.70
2023-05-31T05:44:06.051Z,17.80
2023-05-31T05:46:34.498Z,18.10
2023-05-31T05:49:03.245Z,18.30
2023-05-31T05:51:31.373Z,18.40
2023-05-31T05:54:00.759Z,18.60
2023-05-31T05:56:29.260Z,18.90
2023-05-31T05:58:57.327Z,19.20
2023-05-31T06:01:28.063Z,19.40
2023-05-31T06:03:57.645Z,19.70
2023-05-31T06:06:25.750Z,19.90
2023-05-31T06:08:53.878Z,20.10
2023-05-31T06:11:23.676Z,20.20
2023-05-31T06:13:57.247Z,20.60
2023-05-31T06:16:26.010Z,20.90
2023-05-31T06:18:54.315Z,21.10
2023-05-31T06:21:22.423Z,21.20
2023-05-31T06:23:50.435Z,21.30
2023-05-31T06:26:18.804Z,21.40
2023-05-31T06:28:48.590Z,21.60
2023-05-31T06:31:19.300Z,21.60
2023-05-31T06:33:50.091Z,21.80
2023-05-31T06:36:19.773Z,21.90
2023-05-31T06:38:48.247Z,21.90
2023-05-31T06:41:19.253Z,22.20
2023-05-31T06:43:48.911Z,22.40
2023-05-31T06:46:18.860Z,22.50
2023-05-31T06:48:47.896Z,22.70
2023-05-31T06:51:20.414Z,22.80
2023-05-31T06:53:48.799Z,22.90
2023-05-31T06:56:16.888Z,22.90
2023-05-31T06:58:45.069Z,23.30
2023-05-31T07:01:14.666Z,23.40
2023-05-31T07:03:42.786Z,23.40
2023-05-31T07:06:10.897Z,23.50
2023-05-31T07:08:38.906Z,23.70
2023-05-31T07:11:08.456Z,23.90
2023-05-31T07:13:39.386Z,24.00
2023-05-31T07:16:08.024Z,24.20
2023-05-31T07:18:37.606Z,24.60
2023-05-31T07:21:05.686Z,24.90
2023-05-31T07:23:33.771Z,25.20
2023-05-31T07:26:03.268Z,25.30
2023-05-31T07:28:31.394Z,25.00
2023-05-31T07:30:59.498Z,25.10
2023-05-31T07:33:28.833Z,25.10
2023-05-31T07:36:00.833Z,25.30
2023-05-31T07:38:29.632Z,25.50
2023-05-31T07:40:57.674Z,25.50
2023-05-31T07:43:25.972Z,25.60
2023-05-31T07:45:55.434Z,25.90
2023-05-31T07:48:23.842Z,26.30
2023-05-31T07:50:52.366Z,26.30
2023-05-31T07:53:21.767Z,26.50
2023-05-31T07:55:49.772Z,26.90
2023-05-31T07:58:20.710Z,27.00
2023-05-31T08:00:54.112Z,27.10
2023-05-31T08:03:22.325Z,27.20
2023-05-31T08:05:50.741Z,27.30
2023-05-31T08:08:19.108Z,27.40
2023-05-31T08:10:49.115Z,27.60
2023-05-31T08:13:17.249Z,27.80
2023-05-31T08:15:45.709Z,27.90
2023-05-31T08:18:13.859Z,27.90
2023-05-31T08:20:42.149Z,28.20
2023-05-31T08:23:10.200Z,28.60
2023-05-31T08:25:42.085Z,28.70
2023-05-31T08:28:11.559Z,28.60
2023-05-31T08:30:39.734Z,28.80
2023-05-31T08:33:10.465Z,28.80
2023-05-31T08:35:41.940Z,28.80
2023-05-31T08:38:10.145Z,28.90
2023-05-31T08:40:38.340Z,28.90
2023-05-31T08:43:11.881Z,29.20
2023-05-31T08:45:41.364Z,29.30
2023-05-31T08:48:19.541Z,29.10
2023-05-31T08:50:49.577Z,28.80
2023-05-31T08:53:20.729Z,28.70
2023-05-31T08:55:50.286Z,28.50
2023-05-31T08:58:19.908Z,28.10
2023-05-31T09:00:51.017Z,28.00
2023-05-31T09:03:20.261Z,28.30
2023-05-31T09:05:49.946Z,28.50
2023-05-31T09:08:18.068Z,28.70
2023-05-31T09:10:46.250Z,28.80
2023-05-31T09:13:15.003Z,29.00
2023-05-31T09:15:46.465Z,28.70
2023-05-31T09:18:17.547Z,29.00
2023-05-31T09:20:48.441Z,28.80
2023-05-31T09:23:19.398Z,29.00
2023-05-31T09:25:49.110Z,29.30
2023-05-31T09:28:19.013Z,29.30
2023-05-31T09:30:47.059Z,29.00
2023-05-31T09:33:16.850Z,29.00
2023-05-31T09:35:58.700Z,29.30
2023-05-31T09:38:34.578Z,29.60
2023-05-31T09:41:17.992Z,29.30
2023-05-31T09:43:48.378Z,29.40
2023-05-31T09:46:17.177Z,29.60
2023-05-31T09:48:47.883Z,29.60
2023-05-31T09:51:18.025Z,29.70
2023-05-31T09:53:47.173Z,29.60
2023-05-31T09:56:20.197Z,29.60
2023-05-31T09:58:48.220Z,29.40
2023-05-31T10:01:17.290Z,29.60
2023-05-31T10:03:47.388Z,29.80
2023-05-31T10:06:18.129Z,29.90
2023-05-31T10:08:48.269Z,30.00
2023-05-31T10:11:19.478Z,30.20
2023-05-31T10:13:53.603Z,30.40
2023-05-31T10:16:23.615Z,30.50
2023-05-31T10:18:55.220Z,30.60
2023-05-31T10:21:26.968Z,30.70
2023-05-31T10:23:59.874Z,30.10
2023-05-31T10:26:37.618Z,30.00
2023-05-31T10:29:16.027Z,30.00
2023-05-31T10:31:50.422Z,30.00
2023-05-31T10:34:24.781Z,30.10
2023-05-31T10:36:53.269Z,30.40
2023-05-31T10:39:28.380Z,30.40
2023-05-31T10:42:05.111Z,30.60
2023-05-31T10:44:42.138Z,30.70
2023-05-31T10:47:12.054Z,30.40
2023-05-31T10:49:44.048Z,30.50
2023-05-31T10:52:12.053Z,30.80
2023-05-31T10:54:41.427Z,30.90
2023-05-31T10:57:11.379Z,30.70
2023-05-31T10:59:44.362Z,30.60
2023-05-31T11:02:13.243Z,30.70
2023-05-31T11:04:43.763Z,30.90
2023-05-31T11:07:18.629Z,31.00
2023-05-31T11:10:01.312Z,30.90
2023-05-31T11:12:34.964Z,30.60
2023-05-31T11:15:04.572Z,30.10
2023-05-31T11:17:43.879Z,30.10
2023-05-31T11:20:20.103Z,30.30
2023-05-31T11:23:09.060Z,30.00
2023-05-31T11:25:37.217Z,30.20
2023-05-31T11:28:08.458Z,30.40
2023-05-31T11:30:41.738Z,30.50
2023-05-31T11:33:16.626Z,30.60
2023-05-31T11:35:46.478Z,30.60
2023-05-31T11:38:16.466Z,30.60
2023-05-31T11:40:45.349Z,30.20
2023-05-31T11:43:17.089Z,30.10
2023-05-31T11:45:49.077Z,30.40
2023-05-31T11:48:32.417Z,30.40
2023-05-31T11:51:03.905Z,30.20
2023-05-31T11:53:32.428Z,30.20
2023-05-31T11:56:00.688Z,30.10
2023-05-31T11:58:29.447Z,30.10
2023-05-31T12:01:03.161Z,30.00
2023-05-31T12:03:33.110Z,29.80
2023-05-31T12:06:03.230Z,29.90
2023-05-31T12:08:33.596Z,30.00
2023-05-31T12:11:06.225Z,30.00
2023-05-31T12:13:35.407Z,30.00
2023-05-31T12:16:08.550Z,29.70
2023-05-31T12:18:37.538Z,29.40
2023-05-31T12:21:12.857Z,29.20
2023-05-31T12:23:54.078Z,29.00
2023-05-31T12:26:24.105Z,28.80
2023-05-31T12:28:52.866Z,28.70
2023-05-31T12:31:25.346Z,28.90
2023-05-31T12:33:59.218Z,29.00
2023-05-31T12:36:29.048Z,29.10
2023-05-31T12:39:01.018Z,28.90
2023-05-31T12:41:29.089Z,28.90
2023-05-31T12:44:00.358Z,28.90
2023-05-31T12:46:28.467Z,29.00
2023-05-31T12:48:59.626Z,29.20
2023-05-31T12:51:29.424Z,29.30
2023-05-31T12:54:02.391Z,29.10
2023-05-31T12:56:30.704Z,28.60
2023-05-31T12:58:59.753Z,28.80
2023-05-31T13:01:28.732Z,29.00
2023-05-31T13:03:59.542Z,29.10
2023-05-31T13:06:29.115Z,29.20
2023-05-31T13:08:57.086Z,29.10
2023-05-31T13:11:25.131Z,29.20
2023-05-31T13:13:53.219Z,29.20
2023-05-31T13:16:22.113Z,29.20
2023-05-31T13:18:50.182Z,29.00
2023-05-31T13:21:18.277Z,29.00
2023-05-31T13:23:50.157Z,28.90
2023-05-31T13:26:21.776Z,28.80
2023-05-31T13:28:49.801Z,28.70
2023-05-31T13:31:21.577Z,28.50
2023-05-31T13:33:50.410Z,28.50
2023-05-31T13:36:18.983Z,28.60
2023-05-31T13:38:51.991Z,28.60
2023-05-31T13:41:21.821Z,28.70
2023-05-31T13:43:50.327Z,28.60
2023-05-31T13:46:19.018Z,28.40
2023-05-31T13:48:47.351Z,28.40
2023-05-31T13:51:17.012Z,28.50
2023-05-31T13:53:45.102Z,28.50
2023-05-31T13:56:14.457Z,28.40
2023-05-31T13:58:42.525Z,28.30
2023-05-31T14:01:10.929Z,28.20
2023-05-31T14:03:39.970Z,28.00
2023-05-31T14:06:08.525Z,28.00
2023-05-31T14:08:37.292Z,27.90
2023-05-31T14:11:05.345Z,27.90
2023-05-31T14:13:34.848Z,27.50
2023-05-31T14:16:02.989Z,27.40
2023-05-31T14:18:31.126Z,27.30
2023-05-31T14:20:59.621Z,27.40
2023-05-31T14:23:30.530Z,27.40
2023-05-31T14:25:58.640Z,27.50
2023-05-31T14:28:30.340Z,27.50
2023-05-31T14:31:01.139Z,27.50
2023-05-31T14:33:31.317Z,27.60
2023-05-31T14:36:00.141Z,27.60
2023-05-31T14:38:35.210Z,27.20
2023-05-31T14:41:04.095Z,27.10
2023-05-31T14:43:32.176Z,27.20
2023-05-31T14:46:01.617Z,27.10
2023-05-31T14:48:29.809Z,27.20
2023-05-31T14:50:57.926Z,27.10
2023-05-31T14:53:25.983Z,27.10
2023-05-31T14:56:04.925Z,27.10
2023-05-31T14:58:43.770Z,27.00
2023-05-31T15:01:13.388Z,26.90
2023-05-31T15:03:41.564Z,26.80
2023-05-31T15:06:10.109Z,26.80
2023-05-31T15:08:38.251Z,26.90
2023-05-31T15:11:06.415Z,26.90
2023-05-31T15:13:34.416Z,26.90
2023-05-31T15:16:02.600Z,26.90
2023-05-31T15:18:32.088Z,26.90
2023-05-31T15:21:00.437Z,26.80
2023-05-31T15:23:28.887Z,26.80
2023-05-31T15:25:59.662Z,26.80
2023-05-31T15:28:28.157Z,26.80
2023-05-31T15:30:56.182Z,26.70
2023-05-31T15:33:24.181Z,26.60
2023-05-31T15:35:53.654Z,26.50
2023-05-31T15:38:21.743Z,26.50
2023-05-31T15:40:50.243Z,26.40
2023-05-31T15:43:20.279Z,26.40
2023-05-31T15:45:50.274Z,26.40
2023-05-31T15:48:18.321Z,26.30
2023-05-31T15:50:46.441Z,26.20
2023-05-31T15:53:16.237Z,26.10
2023-05-31T15:55:45.684Z,25.90
2023-05-31T15:58:13.765Z,25.90
2023-05-31T16:00:41.846Z,26.00
2023-05-31T16:03:09.880Z,25.90
2023-05-31T16:05:40.979Z,26.00
2023-05-31T16:08:09.056Z,25.80
2023-05-31T16:10:40.355Z,25.70
2023-05-31T16:13:09.440Z,25.60
2023-05-31T16:15:37.508Z,25.50
2023-05-31T16:18:05.866Z,25.50
2023-05-31T16:20:34.324Z,25.50
2023-05-31T16:23:03.553Z,25.40
2023-05-31T16:25:33.280Z,25.40
2023-05-31T16:28:02.833Z,25.30
2023-05-31T16:30:30.905Z,25.30
2023-05-31T16:32:58.967Z,25.30
2023-05-31T16:35:27.123Z,25.10
2023-05-31T16:37:55.153Z,25.10
2023-05-31T16:40:23.639Z,25.00
2023-05-31T16:42:52.234Z,25.10
2023-05-31T16:45:22.707Z,25.00
2023-05-31T16:47:51.540Z,24.90
2023-05-31T16:50:19.556Z,24.90
2023-05-31T16:52:52.291Z,24.90
2023-05-31T16:55:21.030Z,24.80
2023-05-31T16:57:49.879Z,24.70
2023-05-31T17:00:18.891Z,24.70
2023-05-31T17:02:48.598Z,24.50
2023-05-31T17:05:19.006Z,24.50
2023-05-31T17:07:47.116Z,24.40
2023-05-31T17:10:15.200Z,24.40
2023-05-31T17:12:44.049Z,24.20
2023-05-31T17:15:12.698Z,24.20
2023-05-31T17:17:42.615Z,24.10
2023-05-31T17:20:13.188Z,24.00
2023-05-31T17:22:42.726Z,24.00
2023-05-31T17:25:11.161Z,24.00
2023-05-31T17:27:39.183Z,23.90
2023-05-31T17:30:08.570Z,23.90
2023-05-31T17:32:38.965Z,23.80
2023-05-31T17:35:08.462Z,23.70
2023-05-31T17:37:37.828Z,23.70
2023-05-31T17:40:06.862Z,23.60
2023-05-31T17:42:34.934Z,23.60
2023-05-31T17:45:03.857Z,23.50
2023-05-31T17:47:31.869Z,23.50
2023-05-31T17:50:01.342Z,23.50
2023-05-31T17:52:30.839Z,23.50
2023-05-31T17:55:00.234Z,23.40
2023-05-31T17:57:28.412Z,23.40
2023-05-31T17:59:56.861Z,23.30
2023-05-31T18:02:25.077Z,23.30
2023-05-31T18:04:53.269Z,23.20
2023-05-31T18:07:21.321Z,23.20
2023-05-31T18:09:52.053Z,23.10
2023-05-31T18:12:21.475Z,23.00
2023-05-31T18:14:50.001Z,23.00
2023-05-31T18:17:19.725Z,22.90
2023-05-31T18:19:47.931Z,22.90
2023-05-31T18:22:16.165Z,22.80
2023-05-31T18:24:44.217Z,22.80
2023-05-31T18:27:16.702Z,22.70
2023-05-31T18:29:46.742Z,22.60
2023-05-31T18:32:14.885Z,22.60
2023-05-31T18:34:43.053Z,22.50
2023-05-31T18:37:11.498Z,22.50
2023-05-31T18:39:39.853Z,22.40
2023-05-31T18:42:08.961Z,22.30
2023-05-31T18:44:37.048Z,22.20
2023-05-31T18:47:08.500Z,22.10
2023-05-31T18:49:37.127Z,22.10
2023-05-31T18:52:05.534Z,22.00
2023-05-31T18:54:33.628Z,21.90
2023-05-31T18:57:03.143Z,21.80
2023-05-31T18:59:31.589Z,21.80
2023-05-31T19:02:00.779Z,21.70
2023-05-31T19:04:30.855Z,21.60
2023-05-31T19:06:58.908Z,21.60
2023-05-31T19:09:26.965Z,21.50
2023-05-31T19:11:55.098Z,21.40
2023-05-31T19:14:23.662Z,21.40
2023-05-31T19:16:52.286Z,21.30
2023-05-31T19:19:20.369Z,21.30
2023-05-31T19:21:51.947Z,21.20
2023-05-31T19:24:20.053Z,21.10
2023-05-31T19:26:48.112Z,21.00
2023-05-31T19:29:18.532Z,20.90
2023-05-31T19:31:48.952Z,20.80
2023-05-31T19:34:18.592Z,20.80
2023-05-31T19:36:49.044Z,20.70
2023-05-31T19:39:20.350Z,20.60
2023-05-31T19:41:50.577Z,20.50
2023-05-31T19:44:18.709Z,20.50
2023-05-31T19:46:49.178Z,20.40
2023-05-31T19:49:19.443Z,20.30
2023-05-31T19:51:47.467Z,20.30
2023-05-31T19:54:19.250Z,20.20
2023-05-31T19:56:48.760Z,20.10
2023-05-31T19:59:16.875Z,20.00
2023-05-31T20:01:45.127Z,20.00
2023-05-31T20:04:13.281Z,19.90
2023-05-31T20:06:41.392Z,19.90
2023-05-31T20:09:09.561Z,19.80
2023-05-31T20:11:39.420Z,19.70
2023-05-31T20:14:10.114Z,19.70
2023-05-31T20:16:40.046Z,19.60
2023-05-31T20:19:08.164Z,19.60
2023-05-31T20:21:36.783Z,19.50
2023-05-31T20:24:05.164Z,19.40
2023-05-31T20:26:33.219Z,19.40
2023-05-31T20:29:01.243Z,19.30
2023-05-31T20:31:30.753Z,19.20
2023-05-31T20:33:58.794Z,19.10
2023-05-31T20:36:26.909Z,19.10
2023-05-31T20:38:56.621Z,19.00
2023-05-31T20:41:26.793Z,18.90
2023-05-31T20:43:54.802Z,18.90
2023-05-31T20:46:22.968Z,18.80
2023-05-31T20:48:52.927Z,18.80
2023-05-31T20:51:21.563Z,18.70
2023-05-31T20:53:52.319Z,18.60
2023-05-31T20:56:20.904Z,18.50
2023-05-31T20:58:49.757Z,18.50
2023-05-31T21:01:21.173Z,18.40
2023-05-31T21:03:49.466Z,18.40
2023-05-31T21:06:21.356Z,18.30
2023-05-31T21:08:52.194Z,18.30
2023-05-31T21:11:20.402Z,18.20
2023-05-31T21:13:49.027Z,18.20
2023-05-31T21:16:18.721Z,18.10
2023-05-31T21:18:47.325Z,18.10
2023-05-31T21:21:15.375Z,18.10
2023-05-31T21:23:44.769Z,18.00
2023-05-31T21:26:12.841Z,17.90
2023-05-31T21:28:41.088Z,17.90
2023-05-31T21:31:09.373Z,17.80
2023-05-31T21:33:37.431Z,17.70
2023-05-31T21:36:05.732Z,17.70
2023-05-31T21:38:33.759Z,17.70
2023-05-31T21:41:05.218Z,17.60
2023-05-31T21:43:35.350Z,17.60
2023-05-31T21:46:03.391Z,17.50
2023-05-31T21:48:32.162Z,17.50
2023-05-31T21:51:00.551Z,17.50
2023-05-31T21:53:29.077Z,17.40
2023-05-31T21:55:58.268Z,17.30
2023-05-31T21:58:27.849Z,17.30
2023-05-31T22:00:55.895Z,17.20
2023-05-31T22:03:23.894Z,17.20
2023-05-31T22:05:53.060Z,17.10
2023-05-31T22:08:21.359Z,17.10
2023-05-31T22:10:49.856Z,17.00
2023-05-31T22:13:17.968Z,17.00
2023-05-31T22:15:51.475Z,17.00
2023-05-31T22:18:21.836Z,16.90
2023-05-31T22:20:54.358Z,16.90
2023-05-31T22:23:24.415Z,16.80
2023-05-31T22:25:53.941Z,16.80
2023-05-31T22:28:22.729Z,16.70
2023-05-31T22:30:53.709Z,16.70
2023-05-31T22:33:21.881Z,16.60
2023-05-31T22:35:50.078Z,16.60
2023-05-31T22:38:18.125Z,16.50
2023-05-31T22:40:46.173Z,16.40
2023-05-31T22:43:14.276Z,16.40
2023-05-31T22:45:42.259Z,16.30
2023-05-31T22:48:12.000Z,16.30
2023-05-31T22:50:40.064Z,16.20
2023-05-31T22:53:09.082Z,16.20
2023-05-31T22:55:37.423Z,16.10
2023-05-31T22:58:05.738Z,16.10
2023-05-31T23:00:33.801Z,16.00
2023-05-31T23:03:01.973Z,16.00
2023-05-31T23:05:31.794Z,15.90
2023-05-31T23:08:03.233Z,15.90
2023-05-31T23:10:33.384Z,15.80
2023-05-31T23:13:02.543Z,15.80
2023-05-31T23:15:31.485Z,15.80
2023-05-31T23:17:59.547Z,15.70
2023-05-31T23:20:30.146Z,15.70
2023-05-31T23:22:59.704Z,15.70
2023-05-31T23:25:27.862Z,15.60
2023-05-31T23:27:55.861Z,15.60
2023-05-31T23:30:24.024Z,15.60
2023-05-31T23:32:52.146Z,15.50
2023-05-31T23:35:20.174Z,15.50
2023-05-31T23:37:48.237Z,15.40
2023-05-31T23:40:18.176Z,15.40
2023-05-31T23:42:46.154Z,15.40
2023-05-31T23:45:14.160Z,15.30
2023-05-31T23:47:42.528Z,15.30
2023-05-31T23:50:11.781Z,15.30
2023-05-31T23:52:39.822Z,15.20
2023-05-31T23:55:08.409Z,15.20
2023-05-31T23:57:40.761Z,15.10
